Flight Track Log - Related Links

Times and Time Zones

All times are in EST time to prevent confusion due to time zone crossing. See the N287MC flight status page for this flight to view local times or setup timezone preferences in your user account.

Time Position Orientation Groundspeed Altitude Reporting Facility
EST Latitude Longitude Course Direction KTS MPH feet Rate Location/Type
Mon 06:36:27 PM 42.3667 -70.9833 90° East 178 205 800  Level KA90
Mon 06:36:51 PM 42.3667 -70.9500 90° East 172 198 2,100 3,342 Climbing KA90
Mon 06:37:46 PM 42.3833 -70.8833 71° East 226 260 5,200 3,818 Climbing KA90
Mon 06:38:52 PM 42.3833 -70.7667 90° East 283 326 9,800 3,544 Climbing KA90
Mon 06:40:15 PM 42.3156 -70.7228 154° Southeast 265 305 14,000 2,559 Climbing Boston Center
Mon 06:41:15 PM 42.2481 -70.7661 205° Southwest 287 330 15,900 984 Climbing Boston Center
Mon 06:42:17 PM 42.2072 -70.8947 247° West 352 405 16,000 49 Climbing Boston Center
Mon 06:43:17 PM 42.2042 -71.0364 268° West 354 407 16,000  Level Boston Center
Mon 06:44:18 PM 42.2019 -71.1653 269° West 346 398 16,000  Level Boston Center
Mon 06:45:19 PM 42.1989 -71.3000 268° West 336 387 16,000  Level Boston Center
Mon 06:46:23 PM 42.1967 -71.4306 269° West 347 399 16,000  Level Boston Center
Mon 06:47:24 PM 42.1933 -71.5617 268° West 351 404 16,000  Level Boston Center
Mon 06:48:25 PM 42.1903 -71.7044 268° West 356 410 16,000  Level Boston Center
Mon 06:49:25 PM 42.1872 -71.8358 268° West 355 409 16,000  Level Boston Center
Mon 06:50:26 PM 42.1831 -71.9722 268° West 360 414 16,000  Level Boston Center
Mon 06:51:30 PM 42.1808 -72.1019 269° West 348 400 16,000  Level Boston Center
Mon 06:52:31 PM 42.1764 -72.2403 268° West 345 397 16,000  Level Boston Center
Mon 06:53:32 PM 42.1722 -72.3717 268° West 351 404 16,000  Level Boston Center
Mon 06:54:32 PM 42.1681 -72.5033 268° West 354 407 16,000  Level Boston Center
Mon 06:55:33 PM 42.1650 -72.6444 268° West 356 410 16,000  Level Boston Center
Mon 06:56:36 PM 42.1600 -72.7756 267° West 354 407 16,000  Level Boston Center
Mon 06:57:37 PM 42.1500 -72.9075 264° West 356 410 16,000  Level Boston Center
Mon 06:58:37 PM 42.1400 -73.0497 265° West 357 411 16,000  Level Boston Center
Mon 06:59:41 PM 42.1325 -73.1808 266° West 353 406 16,000  Level Boston Center
Mon 07:00:41 PM 42.1231 -73.3103 264° West 349 402 16,000  Level Boston Center
Mon 07:01:42 PM 42.1111 -73.4433 263° West 354 407 16,000  Level Boston Center
Mon 07:02:44 PM 42.0753 -73.5642 248° West 348 400 16,000  Level Boston Center
Mon 07:03:45 PM 42.0325 -73.6978 247° West 348 400 16,000 -50 Level Boston Center
Mon 07:04:45 PM 41.9947 -73.8158 247° West 346 398 15,900 -992 Descending Boston Center
Mon 07:05:46 PM 41.9583 -73.9286 247° West 333 383 14,000 -1,872 Descending Boston Center
Mon 07:06:50 PM 41.9231 -74.0378 247° West 323 372 12,000 -1,887 Descending Boston Center
Mon 07:07:50 PM 41.8842 -74.1539 246° West 320 368 10,100 -1,190 Descending Boston Center
Mon 07:08:51 PM 41.8519 -74.2539 247° West 297 342 9,600 -1,240 Descending Boston Center
Mon 07:09:51 PM 41.8231 -74.3383 245° Southwest 257 296 7,600 -1,258 Descending Boston Center
Mon 07:10:55 PM 41.7931 -74.4303 246° West 252 290 7,000 -288 Descending Boston Center
Mon 07:11:56 PM 41.7653 -74.5131 246° West 246 283 7,000  Level Boston Center
Mon 07:12:56 PM 41.6969 -74.5378 195° South 259 298 7,000 -198 Level Boston Center
Mon 07:13:57 PM 41.6200 -74.5508 187° South 260 299 6,600 -480 Descending Boston Center
Mon 07:15:01 PM 41.5503 -74.5642 188° South 255 293 6,000 -288 Descending Boston Center
Mon 07:16:02 PM 41.4803 -74.5778 188° South 256 295 6,000  Level Boston Center
Mon 07:17:01 PM 41.4061 -74.5914 188° South 253 291 6,000  Level Boston Center
Mon 07:17:59 PM 41.3333 -74.6000 185° South 255 293 6,000 -458 Level New York TRACON
Mon 07:18:59 PM 41.2667 -74.5667 159° South 253 291 5,100 -1,000 Descending New York TRACON
Mon 07:19:59 PM 41.2000 -74.5500 169° South 260 299 4,000 -550 Descending New York TRACON
Mon 07:20:59 PM 41.1667 -74.4667 118° Southeast 235 270 4,000 -500 Level New York TRACON
Mon 07:21:59 PM 41.1500 -74.4000 108° East 203 234 3,000 -476 Descending New York TRACON
Mon 07:23:05 PM 41.1167 -74.3333 124° Southeast 205 236 3,000  Level New York TRACON
Mon 07:23:59 PM 41.1000 -74.2667 108° East 194 223 3,000  Level New York TRACON
Mon 07:24:59 PM 41.0833 -74.2000 108° East 188 216 3,000  Level New York TRACON
Mon 07:25:59 PM 41.0667 -74.1333 108° East 174 200 3,000 -500 Level New York TRACON
Mon 07:26:59 PM 41.0667 -74.0833 90° East 163 188 2,000 -500 Descending New York TRACON
Mon 07:27:59 PM 41.0333 -74.0500 143° Southeast 160 184 2,000 -150 Level New York TRACON
Mon 07:28:59 PM 40.9833 -74.0500 180° South 152 175 1,700 -250 Descending New York TRACON
Mon 07:29:59 PM 40.9500 -74.0500 180° South 153 176 1,500 -350 Descending New York TRACON
Mon 07:30:59 PM 40.9000 -74.0500 180° South 145 167 1,000 -500 Descending New York TRACON
Mon 07:32:00 PM 40.8500 -74.0500 166° South  Level FlightAware Approximate

Login

Don't have an account? Register now (free) for customized features, flight alerts, and more!